createdAt,value
2019-06-10T07:37:46.037Z,75.400002
2019-06-10T07:42:48.503Z,70.199997
2019-06-10T07:47:52.170Z,68.699997
2019-06-10T07:52:52.919Z,68.599998
2019-06-10T07:57:54.277Z,75.400002
2019-06-10T08:02:58.446Z,67.699997
2019-06-10T08:07:58.971Z,60.799999
2019-06-10T08:13:02.972Z,62.5
2019-06-10T08:18:04.267Z,66.800003
2019-06-10T08:23:05.818Z,67.699997
2019-06-10T08:28:08.427Z,73.599998
2019-06-10T08:33:13.727Z,74.900002
2019-06-10T08:38:18.470Z,87.300003
2019-06-10T08:43:14.814Z,84.099998
2019-06-10T08:48:18.465Z,74.300003
2019-06-10T08:53:19.612Z,69.800003
2019-06-10T08:58:23.281Z,76.199997
2019-06-10T09:03:24.061Z,60.599998
2019-06-10T09:08:26.488Z,59
2019-06-10T09:18:45.929Z,58.200001
2019-06-10T09:23:49.266Z,60
2019-06-10T09:28:49.589Z,63.700001
2019-06-10T09:33:52.203Z,78
2019-06-10T09:38:54.931Z,73.900002
2019-06-10T09:43:56.851Z,79.800003
2019-06-10T09:48:56.740Z,67.5
2019-06-10T09:54:03.637Z,70.699997
2019-06-10T09:59:03.124Z,68.199997
2019-06-10T10:04:04.785Z,70.599998
2019-06-10T10:09:08.428Z,71
2019-06-10T10:14:09.737Z,71.400002
2019-06-10T10:19:12.870Z,76.199997
2019-06-10T10:24:18.321Z,70.800003
2019-06-10T10:29:14.876Z,64.900002
2019-06-10T13:35:32.175Z,99.900002
2019-06-10T14:05:12.131Z,99.900002
2019-06-10T14:17:52.886Z,99.900002
2019-06-10T14:22:55.127Z,99.900002
2019-06-10T14:27:57.499Z,79.199997
2019-06-10T15:33:43.017Z,55.700001
2019-06-10T15:55:06.990Z,99.900002
2019-06-10T16:43:59.962Z,99.900002
2019-06-10T16:49:23.541Z,99.900002
2019-06-10T19:40:36.867Z,99.900002
2019-06-10T19:47:02.487Z,99.900002
2019-06-10T19:52:03.441Z,99.900002
2019-06-10T19:57:43.688Z,99.900002
2019-06-10T20:10:34.151Z,99.900002
2019-06-10T20:21:59.934Z,99.900002
2019-06-10T21:06:06.590Z,99.900002
2019-06-10T22:30:14.725Z,99.900002
2019-06-10T22:42:34.479Z,99.900002
2019-06-10T22:47:34.675Z,99.900002
2019-06-10T22:52:38.704Z,99.900002
2019-06-10T23:16:44.747Z,99.900002
2019-06-10T23:21:47.693Z,99.900002
2019-06-10T23:34:05.046Z,99.900002
2019-06-10T23:47:07.135Z,99.900002
2019-06-10T23:52:08.429Z,99.900002
